Time;durP1;ratioP1;P1;durP2;ratioP2;P2;SDS_P1;SDS_P2;PMS_P1;PMS_P2;Temp;Humidity;BMP_temperature;BMP_pressure;BME280_temperature;BME280_humidity;BME280_pressure;Samples;Min_cycle;Max_cycle;Signal;HPM_P1;HPM_P2
2023/11/21 00:02:13;;;;;;;4.00;0.52;;;8.90;1.00;;;;;;5009177;28;20388;-69
2023/11/21 00:04:39;;;;;;;4.72;0.60;;;8.90;99.90;;;;;;5000538;28;20460;-69
2023/11/21 00:07:05;;;;;;;5.03;0.63;;;9.00;99.90;;;;;;5000317;28;20455;-69
2023/11/21 00:09:31;;;;;;;4.30;0.70;;;8.90;99.90;;;;;;4998398;28;20399;-69
2023/11/21 00:11:59;;;;;;;9.10;1.20;;;9.00;99.90;;;;;;4989351;28;20401;-68
2023/11/21 00:14:24;;;;;;;5.20;0.60;;;9.10;99.90;;;;;;4988686;28;20394;-69
2023/11/21 00:16:50;;;;;;;4.90;0.70;;;9.10;99.90;;;;;;4989081;28;20436;-69
2023/11/21 00:19:16;;;;;;;4.10;0.90;;;9.10;99.90;;;;;;5005953;28;20529;-69
2023/11/21 00:21:43;;;;;;;4.00;0.60;;;9.20;99.90;;;;;;5005004;28;20772;-69
2023/11/21 00:24:09;;;;;;;5.40;0.90;;;9.30;99.90;;;;;;5000035;28;20410;-69
2023/11/21 00:26:37;;;;;;;3.90;0.57;;;9.30;99.90;;;;;;4989287;28;20402;-69
2023/11/21 00:29:03;;;;;;;3.72;0.60;;;9.40;59.40;;;;;;5000528;28;20393;-69
2023/11/21 00:31:30;;;;;;;4.10;0.60;;;9.50;1.00;;;;;;4991810;28;20409;-69
2023/11/21 00:33:56;;;;;;;3.83;0.50;;;9.40;1.00;;;;;;4994212;28;20478;-69
2023/11/21 00:36:21;;;;;;;4.80;0.80;;;9.40;1.00;;;;;;5000167;28;20545;-69
2023/11/21 00:38:48;;;;;;;4.15;0.45;;;9.40;7.30;;;;;;4993104;28;20792;-69
2023/11/21 00:41:13;;;;;;;4.82;0.80;;;9.50;29.10;;;;;;5000359;28;20497;-69
2023/11/21 00:43:39;;;;;;;4.90;0.80;;;9.60;1.00;;;;;;4992282;28;20809;-69
2023/11/21 00:46:07;;;;;;;4.00;0.70;;;9.50;1.00;;;;;;4992080;28;20449;-69
2023/11/21 00:48:33;;;;;;;4.20;0.60;;;9.50;1.00;;;;;;5007262;28;20405;-69
2023/11/21 00:50:59;;;;;;;4.00;0.60;;;9.40;63.50;;;;;;5008697;28;20392;-69
2023/11/21 00:53:24;;;;;;;3.70;0.43;;;9.50;21.80;;;;;;4995572;28;20951;-69
2023/11/21 00:55:52;;;;;;;4.23;0.60;;;9.50;33.50;;;;;;5002577;28;20404;-69
2023/11/21 00:58:17;;;;;;;3.72;0.50;;;9.50;91.00;;;;;;5012324;28;20851;-69
2023/11/21 01:00:43;;;;;;;4.20;0.80;;;9.50;99.90;;;;;;4997046;28;20469;-69
2023/11/21 01:03:09;;;;;;;6.60;0.80;;;9.50;99.90;;;;;;5003027;28;20394;-69
2023/11/21 01:05:35;;;;;;;4.80;0.80;;;9.50;96.30;;;;;;4992077;28;20395;-69
2023/11/21 01:08:00;;;;;;;4.35;0.70;;;9.50;99.90;;;;;;4991905;28;20406;-69
2023/11/21 01:10:26;;;;;;;4.60;1.00;;;9.60;99.90;;;;;;4995926;28;20957;-69
2023/11/21 01:12:51;;;;;;;3.78;0.70;;;9.60;93.00;;;;;;4991604;28;20383;-69
2023/11/21 01:15:17;;;;;;;4.50;0.70;;;9.60;93.30;;;;;;4997958;28;20396;-69
2023/11/21 01:17:42;;;;;;;4.70;0.87;;;9.60;99.90;;;;;;5010584;28;20424;-69
2023/11/21 01:20:12;;;;;;;7.60;0.60;;;9.60;99.90;;;;;;5005514;28;20915;-69
2023/11/21 01:22:38;;;;;;;4.95;0.80;;;9.50;99.90;;;;;;5005619;28;21027;-69
2023/11/21 01:25:07;;;;;;;4.30;1.10;;;9.50;99.90;;;;;;5004505;28;20404;-69
2023/11/21 01:27:33;;;;;;;3.70;0.50;;;9.50;99.90;;;;;;4991747;28;20402;-69
2023/11/21 01:29:59;;;;;;;6.70;1.10;;;9.40;99.90;;;;;;5000847;28;20553;-69
2023/11/21 01:32:25;;;;;;;5.93;0.73;;;9.50;1.00;;;;;;4995725;28;20525;-69
2023/11/21 01:34:51;;;;;;;8.07;0.50;;;9.40;1.00;;;;;;5004046;28;20399;-69
2023/11/21 01:37:17;;;;;;;6.03;0.73;;;9.40;1.00;;;;;;4997769;28;20790;-69
2023/11/21 01:39:46;;;;;;;5.97;0.60;;;9.40;1.00;;;;;;4996615;28;20403;-69
2023/11/21 01:42:12;;;;;;;5.55;0.88;;;9.50;1.00;;;;;;4990224;28;20398;-69
2023/11/21 01:44:39;;;;;;;4.00;0.70;;;9.40;1.00;;;;;;4991359;28;20399;-69
2023/11/21 01:47:09;;;;;;;4.00;0.70;;;9.50;1.00;;;;;;4999179;28;20490;-69
2023/11/21 01:49:35;;;;;;;3.63;0.40;;;9.50;1.00;;;;;;5007570;28;20401;-69
2023/11/21 01:52:02;;;;;;;8.90;1.10;;;9.60;1.00;;;;;;5010736;28;20492;-69
2023/11/21 01:54:31;;;;;;;10.32;1.17;;;9.60;99.90;;;;;;5002730;28;20403;-69
2023/11/21 01:57:02;;;;;;;4.28;0.68;;;9.60;99.90;;;;;;5007540;28;20547;-69
2023/11/21 01:59:36;;;;;;;4.00;0.80;;;9.60;99.90;;;;;;5010761;28;20389;-69
2023/11/21 02:02:06;;;;;;;4.90;0.50;;;9.50;99.90;;;;;;5005009;28;20401;-69
2023/11/21 02:04:33;;;;;;;6.15;0.68;;;9.60;1.00;;;;;;5008102;28;20416;-69
2023/11/21 02:06:59;;;;;;;4.10;0.50;;;9.70;99.90;;;;;;4995906;28;20443;-69
2023/11/21 02:09:30;;;;;;;4.90;0.80;;;9.80;99.90;;;;;;5009968;28;20415;-69
2023/11/21 02:11:55;;;;;;;3.70;0.50;;;9.80;99.90;;;;;;5010490;28;20408;-69
2023/11/21 02:14:22;;;;;;;4.40;0.80;;;9.80;99.90;;;;;;5010916;28;21013;-69
2023/11/21 02:16:51;;;;;;;4.97;0.68;;;9.80;99.90;;;;;;4976420;28;20427;-69
2023/11/21 02:19:22;;;;;;;3.70;0.60;;;9.90;99.90;;;;;;4991026;28;20916;-69
2023/11/21 02:21:49;;;;;;;4.07;0.68;;;9.90;65.00;;;;;;5009348;28;20778;-69
2023/11/21 02:24:17;;;;;;;4.43;0.57;;;9.90;57.50;;;;;;5010151;28;20397;-69
2023/11/21 02:26:43;;;;;;;4.70;0.80;;;9.90;37.40;;;;;;5009164;28;20528;-69
2023/11/21 02:29:11;;;;;;;4.80;1.10;;;9.90;1.00;;;;;;5002176;28;20885;-69
2023/11/21 02:31:45;;;;;;;4.00;0.70;;;9.90;1.00;;;;;;4994894;28;20476;-69
2023/11/21 02:34:13;;;;;;;3.80;0.50;;;10.00;1.00;;;;;;4992912;28;20457;-69
2023/11/21 02:36:38;;;;;;;3.97;0.47;;;10.00;1.00;;;;;;4996124;28;20426;-69
2023/11/21 02:39:04;;;;;;;4.00;0.60;;;10.10;1.00;;;;;;5002063;28;20411;-69
2023/11/21 02:41:29;;;;;;;4.00;0.60;;;10.10;1.00;;;;;;5009733;28;20393;-69
2023/11/21 02:43:55;;;;;;;5.50;0.98;;;10.00;1.00;;;;;;4991615;28;20410;-69
2023/11/21 02:46:20;;;;;;;9.00;0.63;;;9.90;1.00;;;;;;5002733;28;20480;-69
2023/11/21 02:48:46;;;;;;;5.20;0.67;;;9.90;1.00;;;;;;5006282;28;20448;-69
2023/11/21 02:51:11;;;;;;;6.10;0.60;;;9.90;1.00;;;;;;4989787;28;20394;-69
2023/11/21 02:53:38;;;;;;;3.67;0.40;;;9.90;1.00;;;;;;5001558;28;20401;-69
2023/11/21 02:56:04;;;;;;;5.30;0.50;;;9.90;1.00;;;;;;4990599;28;20414;-69
2023/11/21 02:58:30;;;;;;;3.80;0.50;;;9.90;1.00;;;;;;4995897;28;20397;-69
2023/11/21 03:00:56;;;;;;;4.45;0.60;;;9.80;1.00;;;;;;5009640;28;20451;-69
2023/11/21 03:03:23;;;;;;;3.55;0.40;;;9.80;1.00;;;;;;5009618;28;20791;-69
2023/11/21 03:05:49;;;;;;;4.32;0.50;;;9.70;1.00;;;;;;4999965;28;20399;-69
2023/11/21 03:08:14;;;;;;;3.50;0.40;;;9.50;1.00;;;;;;4990165;28;20406;-69
2023/11/21 03:10:40;;;;;;;3.92;0.60;;;9.50;73.40;;;;;;4989766;28;20477;-69
2023/11/21 03:13:05;;;;;;;6.73;0.60;;;9.60;88.70;;;;;;4989706;28;20390;-69
2023/11/21 03:15:32;;;;;;;6.50;0.60;;;9.60;99.90;;;;;;4994478;28;20405;-69
2023/11/21 03:17:58;;;;;;;7.90;0.93;;;9.60;95.20;;;;;;5009504;28;20416;-69
2023/11/21 03:20:23;;;;;;;4.10;0.40;;;9.70;96.60;;;;;;4996455;28;20487;-69
2023/11/21 03:22:49;;;;;;;3.50;0.30;;;9.70;97.10;;;;;;4989893;28;20390;-69
2023/11/21 03:25:17;;;;;;;4.40;0.70;;;9.80;99.90;;;;;;4990206;28;20449;-69
2023/11/21 03:27:44;;;;;;;3.90;0.68;;;9.80;70.60;;;;;;4997239;28;20922;-69
2023/11/21 03:30:10;;;;;;;7.03;0.70;;;9.80;51.40;;;;;;4992785;28;20418;-69
2023/11/21 03:32:36;;;;;;;3.90;0.70;;;9.80;1.00;;;;;;4990396;28;20421;-69
2023/11/21 03:35:03;;;;;;;6.60;1.00;;;9.80;34.00;;;;;;4992242;28;20892;-69
2023/11/21 03:37:29;;;;;;;4.10;0.60;;;9.90;30.10;;;;;;4991479;28;20478;-69
2023/11/21 03:39:56;;;;;;;5.40;0.90;;;9.90;1.00;;;;;;4988866;28;20798;-69
2023/11/21 03:42:21;;;;;;;4.38;0.68;;;9.90;1.00;;;;;;4989059;28;20765;-69
2023/11/21 03:44:47;;;;;;;4.00;0.40;;;10.00;1.00;;;;;;4989452;28;20407;-69
2023/11/21 03:47:12;;;;;;;4.40;0.80;;;9.90;1.00;;;;;;4991538;28;20546;-69
2023/11/21 03:49:38;;;;;;;6.60;0.70;;;9.90;1.00;;;;;;4989799;28;20913;-69
2023/11/21 03:52:04;;;;;;;4.03;0.47;;;9.90;1.00;;;;;;4991517;28;20414;-69
2023/11/21 03:54:29;;;;;;;5.77;0.80;;;9.80;1.00;;;;;;4986767;28;20394;-69
2023/11/21 03:56:55;;;;;;;5.25;0.90;;;9.70;1.00;;;;;;4989695;28;20429;-69
2023/11/21 03:59:24;;;;;;;5.03;1.00;;;9.70;43.00;;;;;;4993285;28;20935;-69
2023/11/21 04:01:50;;;;;;;4.70;0.80;;;9.70;99.90;;;;;;4986161;28;20418;-69
2023/11/21 04:04:16;;;;;;;4.10;0.60;;;9.80;88.10;;;;;;4989298;28;20437;-69
2023/11/21 04:06:42;;;;;;;5.95;1.10;;;9.70;64.70;;;;;;4992350;28;20402;-69
2023/11/21 04:09:07;;;;;;;3.83;0.40;;;9.70;57.50;;;;;;4992473;28;20754;-69
2023/11/21 04:11:33;;;;;;;3.90;0.60;;;9.70;58.10;;;;;;4992635;28;20501;-69
2023/11/21 04:13:59;;;;;;;4.43;0.50;;;9.70;84.10;;;;;;4992209;28;20449;-69
2023/11/21 04:16:24;;;;;;;4.82;0.80;;;9.60;99.90;;;;;;4993056;28;20476;-69
2023/11/21 04:18:50;;;;;;;4.33;0.70;;;9.50;99.90;;;;;;4993586;28;20832;-69
2023/11/21 04:21:15;;;;;;;3.70;0.50;;;9.60;99.90;;;;;;4992851;28;20398;-69
2023/11/21 04:23:42;;;;;;;4.13;0.60;;;9.50;99.90;;;;;;4992644;28;20435;-69
2023/11/21 04:26:07;;;;;;;4.10;0.50;;;9.50;99.90;;;;;;4995380;28;20405;-69
2023/11/21 04:28:33;;;;;;;4.80;0.50;;;9.50;99.90;;;;;;4994441;28;20489;-69
2023/11/21 04:30:58;;;;;;;3.90;0.30;;;9.60;99.90;;;;;;4998779;28;20467;-69
2023/11/21 04:33:25;;;;;;;4.20;0.50;;;9.60;99.90;;;;;;5012191;28;20447;-69
2023/11/21 04:35:51;;;;;;;3.50;0.32;;;9.60;99.90;;;;;;5003456;28;20775;-69
2023/11/21 04:38:16;;;;;;;6.87;0.50;;;9.60;99.90;;;;;;5012829;28;20392;-69
2023/11/21 04:40:42;;;;;;;4.07;0.60;;;9.70;99.90;;;;;;5003590;28;20795;-69
2023/11/21 04:43:07;;;;;;;3.80;0.50;;;9.70;99.90;;;;;;5012008;28;20400;-68
2023/11/21 04:45:33;;;;;;;7.90;0.60;;;9.70;53.70;;;;;;5010342;28;20413;-70
2023/11/21 04:47:58;;;;;;;3.80;0.50;;;9.70;15.40;;;;;;4994573;28;20393;-69
2023/11/21 04:50:26;;;;;;;6.13;0.80;;;9.60;25.30;;;;;;4995140;28;20918;-69
2023/11/21 04:52:51;;;;;;;5.80;0.70;;;9.60;78.80;;;;;;4993995;28;20400;-69
2023/11/21 04:55:17;;;;;;;6.47;1.15;;;9.60;99.90;;;;;;4989905;28;20403;-69
2023/11/21 04:57:42;;;;;;;5.43;0.57;;;9.60;99.90;;;;;;4996815;28;20467;-69
2023/11/21 05:00:09;;;;;;;4.50;0.80;;;9.60;99.90;;;;;;4995425;28;20418;-69
2023/11/21 05:02:35;;;;;;;5.03;0.90;;;9.60;99.90;;;;;;4976678;28;20498;-69
2023/11/21 05:05:01;;;;;;;3.80;0.50;;;9.70;99.90;;;;;;4978469;28;20469;-69
2023/11/21 05:07:30;;;;;;;6.45;1.00;;;9.70;99.90;;;;;;4983791;28;20428;-68
2023/11/21 05:09:55;;;;;;;4.00;0.65;;;9.80;99.90;;;;;;4990894;28;20422;-68
2023/11/21 05:12:24;;;;;;;3.80;0.60;;;9.70;13.60;;;;;;4997563;28;20491;-69
2023/11/21 05:14:50;;;;;;;3.67;0.43;;;9.60;1.00;;;;;;4993408;28;20469;-69
2023/11/21 05:17:15;;;;;;;5.10;0.88;;;9.60;1.00;;;;;;4974905;28;20428;-69
2023/11/21 05:19:41;;;;;;;4.00;0.60;;;9.60;1.00;;;;;;4972035;28;20410;-69
2023/11/21 05:22:08;;;;;;;3.80;0.50;;;9.50;1.00;;;;;;4985559;28;20930;-69
2023/11/21 05:24:34;;;;;;;5.40;1.07;;;9.50;1.00;;;;;;4988649;28;20468;-69
2023/11/21 05:27:00;;;;;;;4.70;0.70;;;9.30;1.00;;;;;;4983281;28;20438;-68
2023/11/21 05:29:26;;;;;;;4.90;0.73;;;9.30;1.00;;;;;;4987673;28;20771;-69
2023/11/21 05:31:52;;;;;;;4.65;0.90;;;9.20;1.00;;;;;;4986813;28;20400;-69
2023/11/21 05:34:18;;;;;;;3.90;0.60;;;9.20;1.00;;;;;;4979144;28;20465;-69
2023/11/21 05:36:45;;;;;;;4.20;0.60;;;9.10;24.50;;;;;;4974840;28;20427;-69
2023/11/21 05:39:11;;;;;;;5.00;0.68;;;9.10;99.90;;;;;;4979843;28;20487;-69
2023/11/21 05:41:36;;;;;;;6.70;0.77;;;9.10;99.90;;;;;;4982857;28;20903;-69
2023/11/21 05:44:02;;;;;;;4.05;0.65;;;9.10;99.90;;;;;;4982334;28;20415;-69
2023/11/21 05:46:28;;;;;;;4.30;0.80;;;9.20;99.90;;;;;;4988334;28;20406;-68
2023/11/21 05:48:53;;;;;;;4.10;0.80;;;9.20;99.90;;;;;;4994018;28;20418;-69
2023/11/21 05:51:18;;;;;;;4.50;0.70;;;9.30;96.10;;;;;;5010736;28;20466;-68
2023/11/21 05:53:44;;;;;;;5.33;0.77;;;9.30;99.90;;;;;;5006115;28;20791;-69
2023/11/21 05:56:10;;;;;;;4.60;0.80;;;9.30;99.90;;;;;;4990616;28;20445;-69
2023/11/21 05:58:35;;;;;;;4.32;0.80;;;9.40;89.50;;;;;;4991119;28;20586;-69
2023/11/21 06:01:01;;;;;;;4.50;1.00;;;9.30;44.50;;;;;;4991237;28;20426;-69
2023/11/21 06:03:26;;;;;;;3.75;0.60;;;9.40;1.00;;;;;;4990781;28;20402;-69
2023/11/21 06:05:52;;;;;;;4.10;0.93;;;9.50;1.00;;;;;;4992428;28;20419;-69
2023/11/21 06:08:18;;;;;;;10.00;0.90;;;9.30;1.00;;;;;;4995185;28;20563;-69
2023/11/21 06:10:44;;;;;;;4.05;0.68;;;9.30;1.00;;;;;;4994843;28;20398;-69
2023/11/21 06:13:10;;;;;;;4.10;0.60;;;9.30;1.00;;;;;;4991143;28;20394;-69
2023/11/21 06:15:36;;;;;;;4.43;0.77;;;9.20;1.00;;;;;;4991260;28;20397;-69
2023/11/21 06:18:01;;;;;;;5.10;1.00;;;9.20;1.00;;;;;;4990465;28;20426;-69
2023/11/21 06:20:27;;;;;;;15.63;1.00;;;9.10;1.00;;;;;;4990706;28;20437;-68
2023/11/21 06:22:53;;;;;;;4.07;0.68;;;9.00;4.80;;;;;;4990878;28;20402;-68
2023/11/21 06:25:19;;;;;;;3.90;0.57;;;9.00;84.10;;;;;;4990613;28;20386;-68
2023/11/21 06:27:47;;;;;;;4.40;0.70;;;8.90;70.10;;;;;;4991094;28;20486;-69
2023/11/21 06:30:15;;;;;;;6.80;0.75;;;8.90;99.90;;;;;;4991220;28;20397;-69
2023/11/21 06:32:41;;;;;;;4.28;1.00;;;8.80;99.90;;;;;;4989713;28;20391;-69
2023/11/21 06:35:08;;;;;;;3.97;0.70;;;8.70;99.90;;;;;;5007454;28;20399;-69
2023/11/21 06:37:34;;;;;;;6.40;1.00;;;8.70;99.90;;;;;;5009665;28;20413;-69
2023/11/21 06:40:00;;;;;;;4.20;0.90;;;8.70;99.90;;;;;;5009953;28;20398;-69
2023/11/21 06:42:26;;;;;;;4.50;0.80;;;8.70;99.90;;;;;;5009730;28;20879;-69
2023/11/21 06:44:53;;;;;;;4.65;0.80;;;8.80;99.90;;;;;;5008206;28;20396;-69
2023/11/21 06:47:24;;;;;;;5.30;1.08;;;8.90;99.90;;;;;;5008257;28;20385;-69
2023/11/21 06:49:50;;;;;;;3.95;0.68;;;8.90;99.90;;;;;;5009083;28;20756;-69
2023/11/21 06:52:16;;;;;;;4.72;1.08;;;9.00;99.90;;;;;;5008543;28;20389;-69
2023/11/21 06:54:42;;;;;;;3.67;0.40;;;9.00;99.90;;;;;;5008088;28;20396;-69
2023/11/21 06:57:07;;;;;;;3.83;0.77;;;9.10;99.90;;;;;;5009329;28;20451;-68
2023/11/21 06:59:33;;;;;;;3.90;0.80;;;9.20;99.90;;;;;;5008753;28;20396;-69
2023/11/21 07:01:59;;;;;;;5.00;0.73;;;9.20;99.90;;;;;;5007244;28;20472;-69
2023/11/21 07:04:27;;;;;;;4.72;0.90;;;9.20;88.60;;;;;;4995298;28;20495;-69
2023/11/21 07:06:56;;;;;;;3.92;0.70;;;9.30;21.10;;;;;;4986734;28;20418;-69
2023/11/21 07:09:22;;;;;;;3.85;0.70;;;9.30;2.00;;;;;;4986696;28;20568;-69
2023/11/21 07:11:50;;;;;;;4.50;0.80;;;9.30;1.00;;;;;;4990184;28;20473;-69
2023/11/21 07:14:16;;;;;;;3.72;0.52;;;9.30;1.00;;;;;;4990373;28;20387;-69
2023/11/21 07:16:42;;;;;;;5.10;1.08;;;9.30;1.00;;;;;;4989607;28;20422;-69
2023/11/21 07:19:08;;;;;;;4.30;1.00;;;9.20;1.00;;;;;;4989677;28;20556;-69
2023/11/21 07:21:36;;;;;;;4.93;1.30;;;9.20;1.00;;;;;;4989850;28;20386;-68
2023/11/21 07:24:03;;;;;;;4.75;0.70;;;9.40;1.00;;;;;;4989515;28;20923;-68
2023/11/21 07:26:29;;;;;;;4.18;0.90;;;9.40;1.00;;;;;;4989386;28;20485;-68
2023/11/21 07:28:55;;;;;;;3.95;0.77;;;9.40;1.00;;;;;;4989594;28;20517;-68
2023/11/21 07:31:21;;;;;;;5.78;1.10;;;9.50;1.00;;;;;;4989221;28;20441;-68
2023/11/21 07:33:47;;;;;;;3.90;0.70;;;9.50;1.00;;;;;;4990045;28;20506;-68
2023/11/21 07:36:14;;;;;;;6.00;1.20;;;9.60;1.00;;;;;;4989650;28;20425;-69
2023/11/21 07:38:39;;;;;;;5.50;1.20;;;9.70;1.00;;;;;;4989583;28;20413;-69
2023/11/21 07:41:07;;;;;;;4.83;1.10;;;9.80;1.00;;;;;;4992222;28;20888;-69
2023/11/21 07:43:35;;;;;;;5.97;0.90;;;9.70;1.00;;;;;;4993743;28;20449;-69
2023/11/21 07:46:04;;;;;;;5.10;1.33;;;9.60;1.00;;;;;;4993540;28;20395;-69
2023/11/21 07:48:33;;;;;;;4.90;1.10;;;9.80;1.00;;;;;;4993208;28;20406;-69
2023/11/21 07:50:59;;;;;;;4.10;0.80;;;9.90;1.00;;;;;;4993541;28;20462;-69
2023/11/21 07:53:28;;;;;;;6.10;0.80;;;9.80;1.00;;;;;;4993414;28;20793;-69
2023/11/21 07:55:54;;;;;;;5.63;0.80;;;9.90;1.00;;;;;;4993373;28;20466;-69
2023/11/21 07:58:20;;;;;;;4.22;0.80;;;10.10;1.00;;;;;;4993191;28;20399;-69
2023/11/21 08:00:46;;;;;;;8.38;1.00;;;10.10;1.00;;;;;;4993963;28;20398;-69
2023/11/21 08:03:13;;;;;;;5.70;1.00;;;10.30;1.00;;;;;;4992894;28;20386;-69
2023/11/21 08:05:40;;;;;;;5.55;1.00;;;10.40;1.00;;;;;;4993387;28;20410;-69
2023/11/21 08:08:05;;;;;;;4.60;0.90;;;10.60;1.00;;;;;;4993109;28;20409;-69
2023/11/21 08:10:31;;;;;;;5.20;0.90;;;10.60;1.00;;;;;;4993347;28;20406;-69
2023/11/21 08:12:56;;;;;;;5.00;1.20;;;10.60;1.00;;;;;;4993371;28;20401;-68
2023/11/21 08:15:22;;;;;;;8.13;1.27;;;10.50;1.00;;;;;;4992973;28;20738;-71
2023/11/21 08:17:48;;;;;;;6.50;1.50;;;10.60;1.00;;;;;;4992923;28;20418;-69
2023/11/21 08:20:16;;;;;;;6.00;1.42;;;10.60;1.00;;;;;;4993479;28;20813;-69
2023/11/21 08:22:44;;;;;;;8.80;1.90;;;10.60;1.00;;;;;;4993384;28;20415;-70
2023/11/21 08:25:10;;;;;;;4.20;0.80;;;10.70;1.00;;;;;;4992686;28;20398;-69
2023/11/21 08:27:36;;;;;;;5.53;1.25;;;10.70;1.00;;;;;;4992894;28;20908;-68
2023/11/21 08:30:03;;;;;;;4.80;1.00;;;10.70;1.00;;;;;;4992573;28;20911;-69
2023/11/21 08:32:32;;;;;;;4.30;1.00;;;10.70;1.00;;;;;;4992301;28;20431;-69
2023/11/21 08:34:57;;;;;;;5.40;0.90;;;10.80;1.00;;;;;;4992584;28;20394;-69
2023/11/21 08:37:23;;;;;;;4.80;1.00;;;10.80;1.00;;;;;;4992746;28;20424;-69
2023/11/21 08:39:49;;;;;;;4.57;0.95;;;10.80;1.00;;;;;;4992494;28;20409;-69
2023/11/21 08:42:15;;;;;;;4.83;1.00;;;10.80;1.00;;;;;;4993114;28;20395;-69
2023/11/21 08:44:41;;;;;;;5.05;1.00;;;10.90;1.00;;;;;;4992581;28;21055;-69
2023/11/21 08:47:06;;;;;;;11.00;1.02;;;11.10;1.00;;;;;;4992171;28;20494;-69
2023/11/21 08:49:32;;;;;;;4.93;0.70;;;11.00;1.00;;;;;;4992389;28;20475;-69
2023/11/21 08:52:01;;;;;;;5.00;1.00;;;11.00;1.00;;;;;;4992048;28;20405;-69
2023/11/21 08:54:27;;;;;;;4.53;1.00;;;11.00;1.00;;;;;;4992361;28;20426;-69
2023/11/21 08:56:54;;;;;;;6.40;1.20;;;11.00;1.00;;;;;;4992304;28;20453;-69
2023/11/21 08:59:20;;;;;;;4.40;0.82;;;11.00;1.00;;;;;;4992300;28;20410;-69
2023/11/21 09:01:46;;;;;;;4.32;0.93;;;11.10;1.00;;;;;;4992792;28;20401;-69
2023/11/21 09:04:12;;;;;;;5.07;1.10;;;11.10;1.00;;;;;;4992394;28;20477;-69
2023/11/21 09:06:39;;;;;;;3.97;0.70;;;10.90;1.00;;;;;;4992318;28;21078;-69
2023/11/21 09:09:05;;;;;;;10.40;0.80;;;10.90;1.00;;;;;;4991812;28;20469;-69
2023/11/21 09:11:35;;;;;;;4.13;0.75;;;10.80;1.00;;;;;;4992065;28;20391;-68
2023/11/21 09:14:01;;;;;;;4.20;0.70;;;10.70;1.00;;;;;;4991908;28;20386;-68
2023/11/21 09:16:26;;;;;;;4.83;1.20;;;10.70;1.00;;;;;;4991410;28;20433;-68
2023/11/21 09:18:52;;;;;;;4.25;0.82;;;10.60;1.00;;;;;;4991942;28;20940;-69
2023/11/21 09:21:17;;;;;;;4.45;0.82;;;10.60;1.00;;;;;;4992507;28;20394;-69
2023/11/21 09:23:44;;;;;;;6.40;0.80;;;10.60;1.00;;;;;;4992454;28;20386;-69
2023/11/21 09:26:10;;;;;;;10.80;1.23;;;10.60;1.00;;;;;;4991996;28;20395;-69
2023/11/21 09:28:38;;;;;;;4.37;1.00;;;10.60;1.00;;;;;;4991583;28;20391;-69
2023/11/21 09:31:04;;;;;;;4.80;1.00;;;10.50;1.00;;;;;;4991554;28;20426;-69
2023/11/21 09:33:31;;;;;;;4.13;0.98;;;10.60;1.00;;;;;;4991526;28;20523;-69
2023/11/21 09:35:57;;;;;;;4.65;0.90;;;10.50;1.00;;;;;;4991772;28;20395;-69
2023/11/21 09:38:23;;;;;;;4.38;0.70;;;10.50;1.00;;;;;;4991449;28;20439;-69
2023/11/21 09:40:49;;;;;;;3.83;0.60;;;10.40;9.70;;;;;;4991305;28;20421;-69
2023/11/21 09:43:17;;;;;;;4.10;0.90;;;10.50;45.40;;;;;;4992189;28;20385;-69
2023/11/21 09:45:46;;;;;;;5.10;1.10;;;10.50;93.50;;;;;;4991348;28;20390;-69
2023/11/21 09:48:12;;;;;;;4.20;1.00;;;10.40;98.20;;;;;;4991284;28;20430;-69
2023/11/21 09:50:41;;;;;;;4.50;1.00;;;10.40;99.90;;;;;;4991189;28;20483;-69
2023/11/21 09:53:23;;;;;;;5.55;1.00;;;10.50;99.90;;;;;;4991330;28;20398;-69
2023/11/21 09:55:52;;;;;;;3.70;0.50;;;10.60;99.90;;;;;;4991089;28;20398;-69
2023/11/21 09:58:19;;;;;;;3.80;0.60;;;10.50;61.40;;;;;;4991723;28;20429;-69
2023/11/21 10:00:48;;;;;;;5.72;1.02;;;10.50;99.90;;;;;;4991404;28;20403;-70
2023/11/21 10:03:15;;;;;;;4.00;0.90;;;10.50;87.40;;;;;;4990472;28;20390;-69
2023/11/21 10:05:42;;;;;;;4.07;0.63;;;10.50;99.90;;;;;;4990838;28;20395;-69
2023/11/21 10:08:12;;;;;;;3.95;0.60;;;10.50;99.90;;;;;;4989633;28;20472;-69
2023/11/21 10:10:42;;;;;;;4.25;0.90;;;10.50;99.90;;;;;;4990739;28;20475;-69
2023/11/21 10:13:11;;;;;;;4.47;0.80;;;10.60;99.90;;;;;;4990736;28;20438;-69
2023/11/21 10:15:38;;;;;;;4.32;0.73;;;10.70;99.90;;;;;;4990444;28;20901;-69
2023/11/21 10:18:06;;;;;;;5.70;0.90;;;10.80;99.90;;;;;;4992926;28;20434;-69
2023/11/21 10:20:33;;;;;;;5.47;0.90;;;10.90;6.80;;;;;;4990771;28;20394;-70
2023/11/21 10:23:01;;;;;;;5.40;1.10;;;11.00;1.00;;;;;;4990726;28;20873;-70
2023/11/21 10:25:27;;;;;;;5.90;0.70;;;10.90;1.00;;;;;;4990704;28;20398;-70
2023/11/21 10:28:00;;;;;;;3.90;0.70;;;11.00;1.00;;;;;;4990280;28;20390;-70
2023/11/21 10:30:37;;;;;;;4.13;0.60;;;11.10;1.00;;;;;;4990056;28;20383;-70
2023/11/21 10:33:03;;;;;;;7.10;1.05;;;11.20;1.00;;;;;;4990264;28;20453;-70
2023/11/21 10:35:50;;;;;;;5.95;1.25;;;11.10;1.00;;;;;;4990422;28;20402;-70
2023/11/21 10:38:17;;;;;;;4.40;0.80;;;11.10;1.00;;;;;;4989347;28;20426;-70
2023/11/21 10:40:44;;;;;;;5.22;1.10;;;11.20;1.00;;;;;;4990313;28;20387;-70
2023/11/21 10:43:11;;;;;;;4.60;1.00;;;11.40;1.00;;;;;;4990134;28;20448;-70
2023/11/21 10:45:37;;;;;;;4.53;1.20;;;11.30;1.00;;;;;;4990533;28;20453;-70
2023/11/21 10:48:21;;;;;;;4.93;1.25;;;11.40;1.00;;;;;;4990238;28;20951;-70
2023/11/21 10:50:47;;;;;;;4.20;0.82;;;11.50;1.00;;;;;;4990440;28;20807;-72
2023/11/21 10:53:13;;;;;;;4.60;1.20;;;11.70;1.00;;;;;;4990383;28;20422;-70
2023/11/21 10:55:39;;;;;;;6.60;1.20;;;11.90;1.00;;;;;;4990419;28;20449;-70
2023/11/21 10:58:05;;;;;;;5.53;1.38;;;12.20;1.00;;;;;;4988280;28;20461;-70
2023/11/21 11:00:32;;;;;;;4.10;0.70;;;12.30;1.00;;;;;;4989614;28;20397;-70
2023/11/21 11:02:59;;;;;;;5.00;1.17;;;12.10;1.00;;;;;;4990589;28;20399;-70
2023/11/21 11:05:29;;;;;;;4.93;1.20;;;12.30;1.00;;;;;;4989847;28;20394;-71
2023/11/21 11:08:06;;;;;;;4.70;1.23;;;12.40;1.00;;;;;;4989817;28;20949;-71
2023/11/21 11:10:32;;;;;;;4.25;0.90;;;12.40;1.00;;;;;;4989750;28;20818;-71
2023/11/21 11:12:58;;;;;;;4.67;0.90;;;12.30;1.00;;;;;;4989575;28;20493;-71
2023/11/21 11:15:26;;;;;;;4.80;1.20;;;12.30;1.00;;;;;;4989327;28;20401;-71
2023/11/21 11:17:52;;;;;;;4.30;0.90;;;12.20;1.00;;;;;;4989797;28;20848;-71
2023/11/21 11:20:20;;;;;;;5.70;1.10;;;12.10;1.00;;;;;;4989001;28;20482;-71
2023/11/21 11:23:28;;;;;;;4.60;1.00;;;12.00;1.00;;;;;;4990419;28;20809;-71
2023/11/21 11:26:05;;;;;;;4.30;0.90;;;12.00;1.00;;;;;;4983832;28;20406;-71
2023/11/21 11:28:43;;;;;;;4.68;0.95;;;12.00;1.00;;;;;;4989685;28;20398;-71
2023/11/21 11:31:51;;;;;;;4.60;0.80;;;12.00;1.00;;;;;;4989690;28;20757;-70
2023/11/21 11:34:31;;;;;;;5.30;1.20;;;12.00;1.00;;;;;;4990459;28;20473;-71
2023/11/21 11:37:07;;;;;;;5.50;0.83;;;12.00;1.00;;;;;;4989603;28;20974;-70
2023/11/21 11:39:45;;;;;;;4.32;0.80;;;12.10;1.00;;;;;;4990120;28;20408;-71
2023/11/21 11:42:16;;;;;;;4.10;0.70;;;12.10;1.00;;;;;;4989129;28;20445;-71
2023/11/21 11:44:51;;;;;;;3.90;0.70;;;12.00;1.00;;;;;;4990445;28;20390;-71
2023/11/21 11:47:32;;;;;;;4.85;1.00;;;12.10;1.00;;;;;;4990512;28;20911;-70
2023/11/21 11:50:10;;;;;;;6.43;1.73;;;12.30;1.00;;;;;;4989765;28;20399;-70
2023/11/21 11:52:36;;;;;;;4.60;1.10;;;12.40;1.00;;;;;;4989014;28;20425;-70
2023/11/21 11:55:04;;;;;;;6.70;1.10;;;12.30;1.00;;;;;;4989476;28;20398;-70
2023/11/21 11:57:34;;;;;;;4.40;0.70;;;12.30;1.00;;;;;;4989715;28;20422;-70
2023/11/21 12:00:24;;;;;;;4.20;0.80;;;12.20;1.00;;;;;;4990295;28;20940;-71
2023/11/21 12:02:58;;;;;;;4.07;0.75;;;12.00;1.00;;;;;;4991206;28;20407;-71
2023/11/21 12:05:27;;;;;;;4.60;0.80;;;11.90;1.00;;;;;;4989981;28;20390;-71
2023/11/21 12:07:55;;;;;;;4.80;0.70;;;12.00;1.00;;;;;;4989722;28;20429;-71
2023/11/21 12:10:31;;;;;;;6.95;1.88;;;12.00;1.00;;;;;;4989532;28;20392;-71
2023/11/21 12:13:08;;;;;;;5.00;0.95;;;12.20;1.00;;;;;;4989930;28;20760;-71
2023/11/21 12:15:34;;;;;;;6.00;1.08;;;12.30;1.00;;;;;;4989229;28;20405;-71
2023/11/21 12:18:01;;;;;;;5.60;1.20;;;12.40;1.00;;;;;;4989718;28;20496;-70
2023/11/21 12:20:27;;;;;;;4.70;1.15;;;12.50;1.00;;;;;;4989768;28;20737;-70
2023/11/21 12:22:54;;;;;;;6.20;1.40;;;12.40;1.00;;;;;;4989851;28;20444;-70
2023/11/21 12:25:24;;;;;;;4.47;0.88;;;12.40;1.00;;;;;;4989780;28;20394;-71
2023/11/21 12:27:52;;;;;;;6.45;1.50;;;12.50;1.00;;;;;;4993433;28;20422;-71
2023/11/21 12:30:22;;;;;;;6.60;1.60;;;12.70;1.00;;;;;;4993479;28;20935;-71
2023/11/21 12:32:53;;;;;;;5.27;1.67;;;13.00;1.00;;;;;;4993638;28;20904;-70
2023/11/21 12:35:19;;;;;;;4.90;1.25;;;13.10;1.00;;;;;;4993040;28;20390;-70
2023/11/21 12:37:50;;;;;;;4.95;1.00;;;13.20;1.00;;;;;;4993622;28;20805;-70
2023/11/21 12:40:17;;;;;;;4.37;0.90;;;13.20;1.00;;;;;;4993320;28;20547;-69
2023/11/21 12:42:44;;;;;;;5.47;1.20;;;13.50;1.00;;;;;;4992802;28;20445;-69
2023/11/21 12:45:14;;;;;;;4.93;0.55;;;13.20;1.00;;;;;;4993043;28;20433;-69
2023/11/21 12:47:42;;;;;;;6.10;0.57;;;12.70;1.00;;;;;;4993099;28;20410;-70
2023/11/21 12:50:13;;;;;;;4.13;0.40;;;11.80;1.00;;;;;;4992737;28;20402;-70
2023/11/21 12:52:40;;;;;;;4.07;0.55;;;11.20;1.00;;;;;;4993291;28;20398;-70
2023/11/21 12:55:09;;;;;;;3.80;0.50;;;11.00;1.00;;;;;;4992746;28;20403;-70
2023/11/21 12:57:37;;;;;;;3.90;0.50;;;10.90;1.00;;;;;;4992600;28;20557;-70
2023/11/21 13:00:12;;;;;;;4.72;0.93;;;10.80;1.00;;;;;;4992963;28;20406;-70